Adams Mills, Ohio
Current Conditions -  °F | °C
As of 3:53 AM on Thursday 18 Dec 2014 (Local Time) from KZZV Reporting Station
Overcast Overcast  
Wind Chill: 19°   Ceiling: 2200
Heat Index: 27°   Visibility: 10mi
Dew Point: 18°   Wind: 8mph
Humidity: 69%   Direction: 310°NW
Pressure: 30.23"   Gusts: NA
Location:  40.1482°N, 82.0354°W
Report Text: KZZV 180853Z AUTO 31007KT 10SM OVC022 M03/M08 A3023 RMK AO2 SLP246 T10281078 51004
Loading
Personal Weather Stations






























Interactive Weather Map New forecast layout! Learn more

10-Day Weather Forecast

Advertisements
Track Severe Weather on mobile